sensor_id;sensor_type;location;lat;lon;timestamp;temperature;humidity
20929;DHT22;21895;47.072;15.132;2023-04-03T00:01:03;6.20;97.30
20929;DHT22;21895;47.072;15.132;2023-04-03T00:03:30;6.30;97.40
20929;DHT22;21895;47.072;15.132;2023-04-03T00:05:57;6.30;97.80
20929;DHT22;21895;47.072;15.132;2023-04-03T00:08:24;6.40;98.40
20929;DHT22;21895;47.072;15.132;2023-04-03T00:10:50;6.40;97.90
20929;DHT22;21895;47.072;15.132;2023-04-03T00:13:17;6.30;97.90
20929;DHT22;21895;47.072;15.132;2023-04-03T00:15:44;6.10;97.40
20929;DHT22;21895;47.072;15.132;2023-04-03T00:18:10;5.90;97.90
20929;DHT22;21895;47.072;15.132;2023-04-03T00:20:37;5.90;98.10
20929;DHT22;21895;47.072;15.132;2023-04-03T00:23:04;6.00;99.30
20929;DHT22;21895;47.072;15.132;2023-04-03T00:25:31;6.00;98.60
20929;DHT22;21895;47.072;15.132;2023-04-03T00:27:58;6.00;99.50
20929;DHT22;21895;47.072;15.132;2023-04-03T00:30:24;5.90;99.30
20929;DHT22;21895;47.072;15.132;2023-04-03T00:32:52;6.00;98.80
20929;DHT22;21895;47.072;15.132;2023-04-03T00:35:20;6.10;99.10
20929;DHT22;21895;47.072;15.132;2023-04-03T00:37:47;6.00;99.30
20929;DHT22;21895;47.072;15.132;2023-04-03T00:40:15;5.90;99.00
20929;DHT22;21895;47.072;15.132;2023-04-03T00:42:43;5.70;99.30
20929;DHT22;21895;47.072;15.132;2023-04-03T00:45:52;5.70;99.90
20929;DHT22;21895;47.072;15.132;2023-04-03T00:48:52;5.70;99.90
20929;DHT22;21895;47.072;15.132;2023-04-03T00:51:28;5.70;99.70
20929;DHT22;21895;47.072;15.132;2023-04-03T00:53:58;5.60;99.90
20929;DHT22;21895;47.072;15.132;2023-04-03T00:56:28;5.50;99.90
20929;DHT22;21895;47.072;15.132;2023-04-03T00:59:15;5.50;99.90
20929;DHT22;21895;47.072;15.132;2023-04-03T01:01:48;5.50;99.90
20929;DHT22;21895;47.072;15.132;2023-04-03T01:04:34;5.30;99.90
20929;DHT22;21895;47.072;15.132;2023-04-03T01:07:11;5.10;99.90
20929;DHT22;21895;47.072;15.132;2023-04-03T01:09:43;5.10;99.90
20929;DHT22;21895;47.072;15.132;2023-04-03T01:12:16;5.00;99.90
20929;DHT22;21895;47.072;15.132;2023-04-03T01:14:49;4.90;99.90
20929;DHT22;21895;47.072;15.132;2023-04-03T01:19:38;4.90;99.90
20929;DHT22;21895;47.072;15.132;2023-04-03T01:22:26;4.60;99.90
20929;DHT22;21895;47.072;15.132;2023-04-03T01:25:02;4.60;99.90
20929;DHT22;21895;47.072;15.132;2023-04-03T01:27:28;4.60;99.90
20929;DHT22;21895;47.072;15.132;2023-04-03T01:29:55;4.70;99.90
20929;DHT22;21895;47.072;15.132;2023-04-03T01:32:21;4.80;99.90
20929;DHT22;21895;47.072;15.132;2023-04-03T01:34:48;4.60;99.90
20929;DHT22;21895;47.072;15.132;2023-04-03T01:37:14;4.40;99.90
20929;DHT22;21895;47.072;15.132;2023-04-03T01:39:41;4.40;99.90
20929;DHT22;21895;47.072;15.132;2023-04-03T01:42:07;4.30;99.90
20929;DHT22;21895;47.072;15.132;2023-04-03T01:44:34;4.10;99.90
20929;DHT22;21895;47.072;15.132;2023-04-03T01:47:01;4.10;99.90
20929;DHT22;21895;47.072;15.132;2023-04-03T01:49:28;4.10;99.90
20929;DHT22;21895;47.072;15.132;2023-04-03T01:51:54;3.90;99.90
20929;DHT22;21895;47.072;15.132;2023-04-03T01:54:21;3.80;99.90
20929;DHT22;21895;47.072;15.132;2023-04-03T01:56:47;3.80;99.90
20929;DHT22;21895;47.072;15.132;2023-04-03T01:59:14;3.90;99.90
20929;DHT22;21895;47.072;15.132;2023-04-03T02:01:42;3.80;99.90
20929;DHT22;21895;47.072;15.132;2023-04-03T02:04:11;3.80;99.90
20929;DHT22;21895;47.072;15.132;2023-04-03T02:06:38;3.90;99.90
20929;DHT22;21895;47.072;15.132;2023-04-03T02:09:05;4.00;99.90
20929;DHT22;21895;47.072;15.132;2023-04-03T02:11:31;4.00;99.90
20929;DHT22;21895;47.072;15.132;2023-04-03T02:13:58;3.80;99.90
20929;DHT22;21895;47.072;15.132;2023-04-03T02:16:24;3.70;99.90
20929;DHT22;21895;47.072;15.132;2023-04-03T02:18:51;3.70;99.90
20929;DHT22;21895;47.072;15.132;2023-04-03T02:21:17;3.80;99.90
20929;DHT22;21895;47.072;15.132;2023-04-03T02:23:44;3.90;99.90
20929;DHT22;21895;47.072;15.132;2023-04-03T02:26:13;3.80;99.90
20929;DHT22;21895;47.072;15.132;2023-04-03T02:28:40;3.70;99.90
20929;DHT22;21895;47.072;15.132;2023-04-03T02:31:08;3.80;99.90
20929;DHT22;21895;47.072;15.132;2023-04-03T02:33:36;3.90;99.90
20929;DHT22;21895;47.072;15.132;2023-04-03T02:36:04;3.90;99.90
20929;DHT22;21895;47.072;15.132;2023-04-03T02:38:32;3.90;99.90
20929;DHT22;21895;47.072;15.132;2023-04-03T02:41:07;4.00;99.90
20929;DHT22;21895;47.072;15.132;2023-04-03T02:43:36;4.10;99.90
20929;DHT22;21895;47.072;15.132;2023-04-03T02:46:04;4.10;99.90
20929;DHT22;21895;47.072;15.132;2023-04-03T02:48:31;4.10;99.90
20929;DHT22;21895;47.072;15.132;2023-04-03T02:50:58;4.10;99.90
20929;DHT22;21895;47.072;15.132;2023-04-03T02:53:24;4.30;99.90
20929;DHT22;21895;47.072;15.132;2023-04-03T02:55:51;4.40;99.90
20929;DHT22;21895;47.072;15.132;2023-04-03T02:58:17;4.30;99.90
20929;DHT22;21895;47.072;15.132;2023-04-03T03:00:44;4.20;99.90
20929;DHT22;21895;47.072;15.132;2023-04-03T03:03:10;4.30;99.90
20929;DHT22;21895;47.072;15.132;2023-04-03T03:05:39;4.30;99.90
20929;DHT22;21895;47.072;15.132;2023-04-03T03:08:05;4.40;99.90
20929;DHT22;21895;47.072;15.132;2023-04-03T03:10:32;4.40;99.90
20929;DHT22;21895;47.072;15.132;2023-04-03T03:12:58;4.50;99.90
20929;DHT22;21895;47.072;15.132;2023-04-03T03:15:25;4.40;99.90
20929;DHT22;21895;47.072;15.132;2023-04-03T03:17:51;4.40;99.90
20929;DHT22;21895;47.072;15.132;2023-04-03T03:20:18;4.50;99.90
20929;DHT22;21895;47.072;15.132;2023-04-03T03:22:44;4.40;99.90
20929;DHT22;21895;47.072;15.132;2023-04-03T03:25:11;4.50;99.90
20929;DHT22;21895;47.072;15.132;2023-04-03T03:27:37;4.60;99.90
20929;DHT22;21895;47.072;15.132;2023-04-03T03:30:05;4.60;99.90
20929;DHT22;21895;47.072;15.132;2023-04-03T03:32:32;4.60;99.90
20929;DHT22;21895;47.072;15.132;2023-04-03T03:34:59;4.70;99.90
20929;DHT22;21895;47.072;15.132;2023-04-03T03:37:25;4.60;99.90
20929;DHT22;21895;47.072;15.132;2023-04-03T03:39:52;4.50;99.90
20929;DHT22;21895;47.072;15.132;2023-04-03T03:42:19;4.40;99.90
20929;DHT22;21895;47.072;15.132;2023-04-03T03:44:45;4.40;99.90
20929;DHT22;21895;47.072;15.132;2023-04-03T03:47:12;4.30;99.90
20929;DHT22;21895;47.072;15.132;2023-04-03T03:49:38;4.20;99.90
20929;DHT22;21895;47.072;15.132;2023-04-03T03:52:05;4.10;99.90
20929;DHT22;21895;47.072;15.132;2023-04-03T03:54:31;4.10;99.90
20929;DHT22;21895;47.072;15.132;2023-04-03T03:56:58;4.20;99.90
20929;DHT22;21895;47.072;15.132;2023-04-03T03:59:24;4.20;99.90
20929;DHT22;21895;47.072;15.132;2023-04-03T04:01:51;4.10;99.90
20929;DHT22;21895;47.072;15.132;2023-04-03T04:04:17;4.20;99.90
20929;DHT22;21895;47.072;15.132;2023-04-03T04:06:44;4.20;99.90
20929;DHT22;21895;47.072;15.132;2023-04-03T04:09:10;4.20;99.90
20929;DHT22;21895;47.072;15.132;2023-04-03T04:11:37;4.30;99.90
20929;DHT22;21895;47.072;15.132;2023-04-03T04:14:06;4.30;99.90
20929;DHT22;21895;47.072;15.132;2023-04-03T04:16:33;4.20;99.90
20929;DHT22;21895;47.072;15.132;2023-04-03T04:18:59;4.30;99.90
20929;DHT22;21895;47.072;15.132;2023-04-03T04:21:26;4.30;99.90
20929;DHT22;21895;47.072;15.132;2023-04-03T04:23:52;4.40;99.90
20929;DHT22;21895;47.072;15.132;2023-04-03T04:26:19;4.40;99.90
20929;DHT22;21895;47.072;15.132;2023-04-03T04:28:47;4.40;99.90
20929;DHT22;21895;47.072;15.132;2023-04-03T04:31:13;4.30;99.90
20929;DHT22;21895;47.072;15.132;2023-04-03T04:33:40;4.30;99.90
20929;DHT22;21895;47.072;15.132;2023-04-03T04:36:06;4.30;99.90
20929;DHT22;21895;47.072;15.132;2023-04-03T04:38:33;4.30;99.90
20929;DHT22;21895;47.072;15.132;2023-04-03T04:41:00;4.30;99.90
20929;DHT22;21895;47.072;15.132;2023-04-03T04:43:26;4.30;99.90
20929;DHT22;21895;47.072;15.132;2023-04-03T04:46:07;4.40;99.90
20929;DHT22;21895;47.072;15.132;2023-04-03T04:48:36;4.30;99.90
20929;DHT22;21895;47.072;15.132;2023-04-03T04:51:03;4.30;99.90
20929;DHT22;21895;47.072;15.132;2023-04-03T04:53:29;4.10;99.90
20929;DHT22;21895;47.072;15.132;2023-04-03T04:55:56;4.20;99.90
20929;DHT22;21895;47.072;15.132;2023-04-03T04:58:22;4.10;99.90
20929;DHT22;21895;47.072;15.132;2023-04-03T05:00:49;4.20;99.90
20929;DHT22;21895;47.072;15.132;2023-04-03T05:03:16;4.30;99.90
20929;DHT22;21895;47.072;15.132;2023-04-03T05:05:42;4.30;99.90
20929;DHT22;21895;47.072;15.132;2023-04-03T05:08:09;4.30;99.90
20929;DHT22;21895;47.072;15.132;2023-04-03T05:10:35;4.30;99.90
20929;DHT22;21895;47.072;15.132;2023-04-03T05:13:02;4.30;99.90
20929;DHT22;21895;47.072;15.132;2023-04-03T05:15:28;4.50;99.90
20929;DHT22;21895;47.072;15.132;2023-04-03T05:17:55;4.40;99.90
20929;DHT22;21895;47.072;15.132;2023-04-03T05:20:21;4.50;99.90
20929;DHT22;21895;47.072;15.132;2023-04-03T05:22:48;4.50;99.90
20929;DHT22;21895;47.072;15.132;2023-04-03T05:25:14;4.50;99.90
20929;DHT22;21895;47.072;15.132;2023-04-03T05:27:41;4.60;99.90
20929;DHT22;21895;47.072;15.132;2023-04-03T05:30:08;4.60;99.90
20929;DHT22;21895;47.072;15.132;2023-04-03T05:32:35;4.70;99.90
20929;DHT22;21895;47.072;15.132;2023-04-03T05:35:02;4.70;99.90
20929;DHT22;21895;47.072;15.132;2023-04-03T05:37:28;4.70;99.90
20929;DHT22;21895;47.072;15.132;2023-04-03T05:39:55;4.80;99.90
20929;DHT22;21895;47.072;15.132;2023-04-03T05:42:21;5.00;99.90
20929;DHT22;21895;47.072;15.132;2023-04-03T05:44:48;5.10;99.90
20929;DHT22;21895;47.072;15.132;2023-04-03T05:47:16;5.10;99.90
20929;DHT22;21895;47.072;15.132;2023-04-03T05:49:43;5.10;99.90
20929;DHT22;21895;47.072;15.132;2023-04-03T05:52:22;5.20;99.90
20929;DHT22;21895;47.072;15.132;2023-04-03T05:54:58;5.30;99.90
20929;DHT22;21895;47.072;15.132;2023-04-03T05:57:24;5.20;99.90
20929;DHT22;21895;47.072;15.132;2023-04-03T05:59:51;5.20;99.90
20929;DHT22;21895;47.072;15.132;2023-04-03T06:02:20;5.20;99.90
20929;DHT22;21895;47.072;15.132;2023-04-03T06:04:47;5.40;99.90
20929;DHT22;21895;47.072;15.132;2023-04-03T06:07:19;5.60;99.90
20929;DHT22;21895;47.072;15.132;2023-04-03T06:09:50;5.80;99.60
20929;DHT22;21895;47.072;15.132;2023-04-03T06:12:17;6.20;99.90
20929;DHT22;21895;47.072;15.132;2023-04-03T06:14:45;6.60;98.80
20929;DHT22;21895;47.072;15.132;2023-04-03T06:17:11;7.20;99.40
20929;DHT22;21895;47.072;15.132;2023-04-03T06:19:38;7.70;99.10
20929;DHT22;21895;47.072;15.132;2023-04-03T06:22:05;8.00;97.30
20929;DHT22;21895;47.072;15.132;2023-04-03T06:24:31;8.30;96.30
20929;DHT22;21895;47.072;15.132;2023-04-03T06:26:58;8.70;93.00
20929;DHT22;21895;47.072;15.132;2023-04-03T06:29:25;8.90;92.20
20929;DHT22;21895;47.072;15.132;2023-04-03T06:31:52;9.10;91.10
20929;DHT22;21895;47.072;15.132;2023-04-03T06:34:18;9.30;91.30
20929;DHT22;21895;47.072;15.132;2023-04-03T06:36:46;9.40;90.40
20929;DHT22;21895;47.072;15.132;2023-04-03T06:39:20;9.60;91.70
20929;DHT22;21895;47.072;15.132;2023-04-03T06:41:49;9.70;91.00
20929;DHT22;21895;47.072;15.132;2023-04-03T06:44:16;9.90;84.70
20929;DHT22;21895;47.072;15.132;2023-04-03T06:46:44;10.00;83.50
20929;DHT22;21895;47.072;15.132;2023-04-03T06:49:12;10.00;83.50
20929;DHT22;21895;47.072;15.132;2023-04-03T06:51:39;10.10;84.40
20929;DHT22;21895;47.072;15.132;2023-04-03T06:54:06;10.40;81.40
20929;DHT22;21895;47.072;15.132;2023-04-03T06:56:34;10.20;78.00
20929;DHT22;21895;47.072;15.132;2023-04-03T06:59:01;10.20;76.60
20929;DHT22;21895;47.072;15.132;2023-04-03T07:01:29;10.20;72.80
20929;DHT22;21895;47.072;15.132;2023-04-03T07:03:57;10.00;73.20
20929;DHT22;21895;47.072;15.132;2023-04-03T07:06:24;10.10;71.00
20929;DHT22;21895;47.072;15.132;2023-04-03T07:08:54;10.00;73.20
20929;DHT22;21895;47.072;15.132;2023-04-03T07:11:21;10.20;71.60
20929;DHT22;21895;47.072;15.132;2023-04-03T07:13:49;10.10;70.70
20929;DHT22;21895;47.072;15.132;2023-04-03T07:16:16;10.00;71.30
20929;DHT22;21895;47.072;15.132;2023-04-03T07:18:42;9.60;69.40
20929;DHT22;21895;47.072;15.132;2023-04-03T07:21:09;9.40;71.50
20929;DHT22;21895;47.072;15.132;2023-04-03T07:23:36;9.40;70.90
20929;DHT22;21895;47.072;15.132;2023-04-03T07:26:03;9.30;71.40
20929;DHT22;21895;47.072;15.132;2023-04-03T07:28:30;8.90;71.40
20929;DHT22;21895;47.072;15.132;2023-04-03T07:31:02;9.00;71.00
20929;DHT22;21895;47.072;15.132;2023-04-03T07:33:32;9.10;71.30
20929;DHT22;21895;47.072;15.132;2023-04-03T07:35:59;9.60;71.60
20929;DHT22;21895;47.072;15.132;2023-04-03T07:38:26;9.90;71.70
20929;DHT22;21895;47.072;15.132;2023-04-03T07:40:53;9.60;68.90
20929;DHT22;21895;47.072;15.132;2023-04-03T07:43:20;9.10;70.80
20929;DHT22;21895;47.072;15.132;2023-04-03T07:45:49;9.00;71.10
20929;DHT22;21895;47.072;15.132;2023-04-03T07:48:24;9.00;70.70
20929;DHT22;21895;47.072;15.132;2023-04-03T07:50:51;8.90;71.40
20929;DHT22;21895;47.072;15.132;2023-04-03T07:53:18;8.80;71.10
20929;DHT22;21895;47.072;15.132;2023-04-03T07:55:48;8.90;70.80
20929;DHT22;21895;47.072;15.132;2023-04-03T07:58:18;8.80;70.30
20929;DHT22;21895;47.072;15.132;2023-04-03T08:00:45;8.60;70.00
20929;DHT22;21895;47.072;15.132;2023-04-03T08:03:12;8.50;70.10
20929;DHT22;21895;47.072;15.132;2023-04-03T08:05:41;8.40;71.00
20929;DHT22;21895;47.072;15.132;2023-04-03T08:08:10;8.50;70.00
20929;DHT22;21895;47.072;15.132;2023-04-03T08:10:38;8.60;70.20
20929;DHT22;21895;47.072;15.132;2023-04-03T08:13:08;8.70;70.30
20929;DHT22;21895;47.072;15.132;2023-04-03T08:15:35;8.90;69.80
20929;DHT22;21895;47.072;15.132;2023-04-03T08:18:02;9.00;69.90
20929;DHT22;21895;47.072;15.132;2023-04-03T08:20:30;8.80;70.20
20929;DHT22;21895;47.072;15.132;2023-04-03T08:22:56;8.80;70.00
20929;DHT22;21895;47.072;15.132;2023-04-03T08:25:23;8.70;70.20
20929;DHT22;21895;47.072;15.132;2023-04-03T08:27:50;8.60;71.00
20929;DHT22;21895;47.072;15.132;2023-04-03T08:30:17;8.60;71.90
20929;DHT22;21895;47.072;15.132;2023-04-03T08:32:43;8.60;72.00
20929;DHT22;21895;47.072;15.132;2023-04-03T08:35:10;8.70;71.60
20929;DHT22;21895;47.072;15.132;2023-04-03T08:37:38;8.90;70.40
20929;DHT22;21895;47.072;15.132;2023-04-03T08:40:06;8.90;70.80
20929;DHT22;21895;47.072;15.132;2023-04-03T08:43:25;8.90;71.30
20929;DHT22;21895;47.072;15.132;2023-04-03T08:46:05;8.90;68.50
20929;DHT22;21895;47.072;15.132;2023-04-03T08:48:41;8.60;67.40
20929;DHT22;21895;47.072;15.132;2023-04-03T08:51:17;8.40;67.80
20929;DHT22;21895;47.072;15.132;2023-04-03T08:54:00;8.40;67.30
20929;DHT22;21895;47.072;15.132;2023-04-03T08:56:31;8.50;68.50
20929;DHT22;21895;47.072;15.132;2023-04-03T08:59:05;8.60;67.70
20929;DHT22;21895;47.072;15.132;2023-04-03T09:01:40;8.80;67.60
20929;DHT22;21895;47.072;15.132;2023-04-03T09:04:13;9.00;66.30
20929;DHT22;21895;47.072;15.132;2023-04-03T09:06:45;8.90;65.30
20929;DHT22;21895;47.072;15.132;2023-04-03T09:09:31;8.90;65.80
20929;DHT22;21895;47.072;15.132;2023-04-03T09:12:44;9.00;65.00
20929;DHT22;21895;47.072;15.132;2023-04-03T09:15:24;8.80;65.50
20929;DHT22;21895;47.072;15.132;2023-04-03T09:18:20;8.70;64.30
20929;DHT22;21895;47.072;15.132;2023-04-03T09:24:15;8.70;64.40
20929;DHT22;21895;47.072;15.132;2023-04-03T09:26:56;9.20;65.30
20929;DHT22;21895;47.072;15.132;2023-04-03T09:29:28;9.80;62.30
20929;DHT22;21895;47.072;15.132;2023-04-03T09:32:05;10.20;64.10
20929;DHT22;21895;47.072;15.132;2023-04-03T09:34:54;10.80;63.00
20929;DHT22;21895;47.072;15.132;2023-04-03T09:37:39;11.30;62.90
20929;DHT22;21895;47.072;15.132;2023-04-03T09:45:03;10.70;60.60
20929;DHT22;21895;47.072;15.132;2023-04-03T09:47:35;10.00;60.30
20929;DHT22;21895;47.072;15.132;2023-04-03T09:50:21;9.40;60.20
20929;DHT22;21895;47.072;15.132;2023-04-03T09:52:51;9.00;62.30
20929;DHT22;21895;47.072;15.132;2023-04-03T09:55:23;8.90;62.60
20929;DHT22;21895;47.072;15.132;2023-04-03T09:57:59;9.20;61.80
20929;DHT22;21895;47.072;15.132;2023-04-03T10:00:38;9.70;60.10
20929;DHT22;21895;47.072;15.132;2023-04-03T10:03:27;10.20;60.20
20929;DHT22;21895;47.072;15.132;2023-04-03T10:06:01;10.50;58.20
20929;DHT22;21895;47.072;15.132;2023-04-03T10:08:31;10.30;59.70
20929;DHT22;21895;47.072;15.132;2023-04-03T10:11:08;10.20;58.50
20929;DHT22;21895;47.072;15.132;2023-04-03T10:15:36;10.10;59.00
20929;DHT22;21895;47.072;15.132;2023-04-03T10:18:45;10.00;58.60
20929;DHT22;21895;47.072;15.132;2023-04-03T10:22:14;9.90;58.80
20929;DHT22;21895;47.072;15.132;2023-04-03T10:26:36;10.50;58.80
20929;DHT22;21895;47.072;15.132;2023-04-03T10:29:48;11.10;58.50
20929;DHT22;21895;47.072;15.132;2023-04-03T10:32:50;10.50;56.70
20929;DHT22;21895;47.072;15.132;2023-04-03T10:35:44;9.90;58.30
20929;DHT22;21895;47.072;15.132;2023-04-03T10:38:43;10.20;58.10
20929;DHT22;21895;47.072;15.132;2023-04-03T10:49:02;10.70;58.00
20929;DHT22;21895;47.072;15.132;2023-04-03T10:52:32;10.70;57.50
20929;DHT22;21895;47.072;15.132;2023-04-03T10:55:31;10.60;56.80
20929;DHT22;21895;47.072;15.132;2023-04-03T10:58:21;10.60;57.20
20929;DHT22;21895;47.072;15.132;2023-04-03T11:00:55;10.30;57.50
20929;DHT22;21895;47.072;15.132;2023-04-03T11:03:36;10.50;57.60
20929;DHT22;21895;47.072;15.132;2023-04-03T11:06:10;10.50;57.80
20929;DHT22;21895;47.072;15.132;2023-04-03T11:09:02;10.40;56.60
20929;DHT22;21895;47.072;15.132;2023-04-03T11:11:36;10.30;57.30
20929;DHT22;21895;47.072;15.132;2023-04-03T11:14:22;10.70;57.50
20929;DHT22;21895;47.072;15.132;2023-04-03T11:18:51;10.80;56.90
20929;DHT22;21895;47.072;15.132;2023-04-03T11:21:48;10.90;57.20
20929;DHT22;21895;47.072;15.132;2023-04-03T11:24:27;11.20;57.30
20929;DHT22;21895;47.072;15.132;2023-04-03T11:26:58;11.00;57.20
20929;DHT22;21895;47.072;15.132;2023-04-03T11:29:33;11.20;58.90
20929;DHT22;21895;47.072;15.132;2023-04-03T11:34:42;11.00;56.80
20929;DHT22;21895;47.072;15.132;2023-04-03T11:37:33;10.20;58.10
20929;DHT22;21895;47.072;15.132;2023-04-03T11:40:07;10.70;59.00
20929;DHT22;21895;47.072;15.132;2023-04-03T11:43:02;11.00;57.80
20929;DHT22;21895;47.072;15.132;2023-04-03T11:45:35;11.10;57.80
20929;DHT22;21895;47.072;15.132;2023-04-03T11:48:43;10.40;56.30
20929;DHT22;21895;47.072;15.132;2023-04-03T11:51:54;9.80;57.80
20929;DHT22;21895;47.072;15.132;2023-04-03T11:54:44;10.20;58.70
20929;DHT22;21895;47.072;15.132;2023-04-03T11:58:14;10.30;57.40
20929;DHT22;21895;47.072;15.132;2023-04-03T12:00:55;10.00;58.00
20929;DHT22;21895;47.072;15.132;2023-04-03T12:03:58;10.10;58.70
20929;DHT22;21895;47.072;15.132;2023-04-03T12:06:51;9.70;58.00
20929;DHT22;21895;47.072;15.132;2023-04-03T12:09:33;9.90;58.90
20929;DHT22;21895;47.072;15.132;2023-04-03T12:12:37;10.10;58.10
20929;DHT22;21895;47.072;15.132;2023-04-03T12:15:50;10.40;58.70
20929;DHT22;21895;47.072;15.132;2023-04-03T12:18:46;10.90;59.20
20929;DHT22;21895;47.072;15.132;2023-04-03T12:22:08;10.30;58.10
20929;DHT22;21895;47.072;15.132;2023-04-03T12:24:39;10.30;58.20
20929;DHT22;21895;47.072;15.132;2023-04-03T12:29:01;10.50;59.60
20929;DHT22;21895;47.072;15.132;2023-04-03T12:38:53;10.10;58.80
20929;DHT22;21895;47.072;15.132;2023-04-03T12:41:48;9.40;59.20
20929;DHT22;21895;47.072;15.132;2023-04-03T12:45:16;9.50;59.70
20929;DHT22;21895;47.072;15.132;2023-04-03T12:47:49;9.80;58.80
20929;DHT22;21895;47.072;15.132;2023-04-03T12:50:22;10.00;58.80
20929;DHT22;21895;47.072;15.132;2023-04-03T12:53:03;10.10;58.10
20929;DHT22;21895;47.072;15.132;2023-04-03T12:55:37;9.90;57.50
20929;DHT22;21895;47.072;15.132;2023-04-03T12:58:24;9.70;58.90
20929;DHT22;21895;47.072;15.132;2023-04-03T13:01:04;9.90;58.50
20929;DHT22;21895;47.072;15.132;2023-04-03T13:03:43;9.70;58.30
20929;DHT22;21895;47.072;15.132;2023-04-03T13:06:27;9.70;58.70
20929;DHT22;21895;47.072;15.132;2023-04-03T13:09:00;9.70;58.50
20929;DHT22;21895;47.072;15.132;2023-04-03T13:11:32;9.70;58.40
20929;DHT22;21895;47.072;15.132;2023-04-03T13:14:05;9.50;58.50
20929;DHT22;21895;47.072;15.132;2023-04-03T13:16:42;9.50;59.00
20929;DHT22;21895;47.072;15.132;2023-04-03T13:19:41;9.60;59.90
20929;DHT22;21895;47.072;15.132;2023-04-03T13:22:26;10.00;61.30
20929;DHT22;21895;47.072;15.132;2023-04-03T13:25:11;10.10;59.00
20929;DHT22;21895;47.072;15.132;2023-04-03T13:27:41;10.10;58.40
20929;DHT22;21895;47.072;15.132;2023-04-03T13:30:34;10.00;58.80
20929;DHT22;21895;47.072;15.132;2023-04-03T13:33:06;10.00;59.30
20929;DHT22;21895;47.072;15.132;2023-04-03T13:35:55;9.90;58.30
20929;DHT22;21895;47.072;15.132;2023-04-03T13:38:34;9.90;59.80
20929;DHT22;21895;47.072;15.132;2023-04-03T13:41:23;9.70;59.30
20929;DHT22;21895;47.072;15.132;2023-04-03T13:44:43;9.40;58.90
20929;DHT22;21895;47.072;15.132;2023-04-03T13:47:23;9.60;60.50
20929;DHT22;21895;47.072;15.132;2023-04-03T13:50:16;9.60;59.80
20929;DHT22;21895;47.072;15.132;2023-04-03T13:53:10;9.20;59.20
20929;DHT22;21895;47.072;15.132;2023-04-03T13:56:07;9.10;59.00
20929;DHT22;21895;47.072;15.132;2023-04-03T13:58:54;9.40;59.70
20929;DHT22;21895;47.072;15.132;2023-04-03T14:02:33;9.60;58.80
20929;DHT22;21895;47.072;15.132;2023-04-03T14:05:03;9.50;59.20
20929;DHT22;21895;47.072;15.132;2023-04-03T14:07:34;9.70;58.50
20929;DHT22;21895;47.072;15.132;2023-04-03T14:10:01;9.70;58.90
20929;DHT22;21895;47.072;15.132;2023-04-03T14:12:32;9.50;59.00
20929;DHT22;21895;47.072;15.132;2023-04-03T14:15:01;9.40;59.60
20929;DHT22;21895;47.072;15.132;2023-04-03T14:17:31;9.30;59.10
20929;DHT22;21895;47.072;15.132;2023-04-03T14:19:58;9.20;59.20
20929;DHT22;21895;47.072;15.132;2023-04-03T14:22:30;9.10;59.30
20929;DHT22;21895;47.072;15.132;2023-04-03T14:24:58;8.80;59.10
20929;DHT22;21895;47.072;15.132;2023-04-03T14:27:39;8.80;58.80
20929;DHT22;21895;47.072;15.132;2023-04-03T14:30:17;9.00;59.40
20929;DHT22;21895;47.072;15.132;2023-04-03T14:32:46;9.10;59.60
20929;DHT22;21895;47.072;15.132;2023-04-03T14:35:15;9.10;59.50
20929;DHT22;21895;47.072;15.132;2023-04-03T14:37:42;8.90;59.80
20929;DHT22;21895;47.072;15.132;2023-04-03T14:40:13;8.80;60.00
20929;DHT22;21895;47.072;15.132;2023-04-03T14:42:43;8.70;59.90
20929;DHT22;21895;47.072;15.132;2023-04-03T14:45:12;8.70;60.40
20929;DHT22;21895;47.072;15.132;2023-04-03T14:47:53;8.80;60.10
20929;DHT22;21895;47.072;15.132;2023-04-03T14:50:23;9.00;60.90
20929;DHT22;21895;47.072;15.132;2023-04-03T14:52:55;9.10;59.60
20929;DHT22;21895;47.072;15.132;2023-04-03T14:55:26;9.10;59.30
20929;DHT22;21895;47.072;15.132;2023-04-03T14:57:53;9.10;59.60
20929;DHT22;21895;47.072;15.132;2023-04-03T15:00:21;9.10;59.80
20929;DHT22;21895;47.072;15.132;2023-04-03T15:02:48;9.20;60.10
20929;DHT22;21895;47.072;15.132;2023-04-03T15:05:15;9.50;59.70
20929;DHT22;21895;47.072;15.132;2023-04-03T15:07:54;9.40;60.70
20929;DHT22;21895;47.072;15.132;2023-04-03T15:10:30;9.40;61.80
20929;DHT22;21895;47.072;15.132;2023-04-03T15:12:57;9.20;59.20
20929;DHT22;21895;47.072;15.132;2023-04-03T15:15:24;9.10;59.60
20929;DHT22;21895;47.072;15.132;2023-04-03T15:17:55;8.70;58.30
20929;DHT22;21895;47.072;15.132;2023-04-03T15:20:27;8.50;59.20
20929;DHT22;21895;47.072;15.132;2023-04-03T15:22:56;8.40;59.30
20929;DHT22;21895;47.072;15.132;2023-04-03T15:25:23;8.20;59.60
20929;DHT22;21895;47.072;15.132;2023-04-03T15:27:51;8.10;59.40
20929;DHT22;21895;47.072;15.132;2023-04-03T15:30:19;8.00;59.80
20929;DHT22;21895;47.072;15.132;2023-04-03T15:32:46;8.00;60.20
20929;DHT22;21895;47.072;15.132;2023-04-03T15:35:13;7.80;59.50
20929;DHT22;21895;47.072;15.132;2023-04-03T15:37:39;7.80;60.20
20929;DHT22;21895;47.072;15.132;2023-04-03T15:40:06;7.80;60.10
20929;DHT22;21895;47.072;15.132;2023-04-03T15:42:34;7.80;59.90
20929;DHT22;21895;47.072;15.132;2023-04-03T15:45:00;7.90;60.40
20929;DHT22;21895;47.072;15.132;2023-04-03T15:47:27;7.90;60.40
20929;DHT22;21895;47.072;15.132;2023-04-03T15:49:54;7.90;60.00
20929;DHT22;21895;47.072;15.132;2023-04-03T15:52:21;7.90;60.60
20929;DHT22;21895;47.072;15.132;2023-04-03T15:54:48;7.70;60.00
20929;DHT22;21895;47.072;15.132;2023-04-03T15:57:15;7.60;59.80
20929;DHT22;21895;47.072;15.132;2023-04-03T15:59:41;7.60;60.90
20929;DHT22;21895;47.072;15.132;2023-04-03T16:02:09;7.50;60.20
20929;DHT22;21895;47.072;15.132;2023-04-03T16:04:38;7.50;61.20
20929;DHT22;21895;47.072;15.132;2023-04-03T16:07:05;7.50;60.50
20929;DHT22;21895;47.072;15.132;2023-04-03T16:09:32;7.50;60.90
20929;DHT22;21895;47.072;15.132;2023-04-03T16:12:02;7.60;61.00
20929;DHT22;21895;47.072;15.132;2023-04-03T16:14:29;7.40;61.10
20929;DHT22;21895;47.072;15.132;2023-04-03T16:16:57;7.30;61.00
20929;DHT22;21895;47.072;15.132;2023-04-03T16:19:25;7.20;60.60
20929;DHT22;21895;47.072;15.132;2023-04-03T16:21:53;7.20;60.40
20929;DHT22;21895;47.072;15.132;2023-04-03T16:24:21;7.10;59.30
20929;DHT22;21895;47.072;15.132;2023-04-03T16:26:48;6.90;59.60
20929;DHT22;21895;47.072;15.132;2023-04-03T16:29:14;6.80;59.60
20929;DHT22;21895;47.072;15.132;2023-04-03T16:31:41;6.70;58.80
20929;DHT22;21895;47.072;15.132;2023-04-03T16:34:08;6.90;59.70
20929;DHT22;21895;47.072;15.132;2023-04-03T16:36:34;6.90;59.40
20929;DHT22;21895;47.072;15.132;2023-04-03T16:39:01;6.90;59.80
20929;DHT22;21895;47.072;15.132;2023-04-03T16:41:27;7.10;59.80